Lake Thunderbird, Illinois
Current Conditions -  °F | °C
As of 7:15 AM on Thursday 27 Nov 2014 (Local Time) from KC75 Reporting Station
Overcast Overcast  
Wind Chill: 18°   Ceiling: 2500
Heat Index: 25°   Visibility: 7mi
Dew Point: 21°   Wind: 6mph
Humidity: 85%   Direction: 300°WNW
Pressure: 30.36"   Gusts: NA
Location:  41.1888°N, 89.4469°W
Report Text: KC75 271315Z AUTO 30005KT 7SM OVC025 M04/M06 A3036 RMK AO2 T10411063
Loading
Personal Weather Stations






























Interactive Weather Map New forecast layout! Learn more

10-Day Weather Forecast

Advertisements
Track Severe Weather on mobile